createdAt,value
2023-03-18T00:01:12.287Z,7.00
2023-03-18T00:03:40.180Z,6.85
2023-03-18T00:06:15.451Z,5.60
2023-03-18T00:08:45.401Z,7.65
2023-03-18T00:11:16.202Z,7.50
2023-03-18T00:13:44.219Z,8.37
2023-03-18T00:16:12.582Z,8.07
2023-03-18T00:18:41.607Z,5.85
2023-03-18T00:21:10.970Z,7.45
2023-03-18T00:23:39.363Z,7.43
2023-03-18T00:26:10.461Z,6.55
2023-03-18T00:28:42.657Z,8.27
2023-03-18T00:31:13.540Z,4.70
2023-03-18T00:33:46.172Z,4.88
2023-03-18T00:36:18.369Z,4.22
2023-03-18T00:38:51.103Z,5.10
2023-03-18T00:41:19.183Z,3.22
2023-03-18T00:43:54.952Z,2.90
2023-03-18T00:46:29.243Z,4.07
2023-03-18T00:49:01.332Z,3.33
2023-03-18T00:51:33.954Z,3.63
2023-03-18T00:54:07.269Z,2.92
2023-03-18T00:56:38.581Z,3.72
2023-03-18T00:59:08.702Z,5.95
2023-03-18T01:01:37.757Z,5.03
2023-03-18T01:04:07.281Z,3.70
2023-03-18T01:06:38.483Z,4.53
2023-03-18T01:09:09.083Z,4.57
2023-03-18T01:11:37.192Z,4.33
2023-03-18T01:14:05.279Z,4.80
2023-03-18T01:16:33.192Z,3.40
2023-03-18T01:19:01.563Z,5.13
2023-03-18T01:21:29.397Z,4.60
2023-03-18T01:26:30.089Z,4.50
2023-03-18T01:29:00.540Z,4.65
2023-03-18T01:31:30.601Z,5.15
2023-03-18T01:34:04.223Z,7.93
2023-03-18T01:36:40.889Z,4.28
2023-03-18T01:39:10.480Z,5.70
2023-03-18T01:41:40.260Z,7.18
2023-03-18T01:44:22.814Z,5.03
2023-03-18T01:46:54.036Z,4.88
2023-03-18T01:49:36.619Z,4.43
2023-03-18T01:52:36.377Z,5.07
2023-03-18T01:55:10.569Z,6.97
2023-03-18T01:57:38.600Z,4.10
2023-03-18T02:00:07.876Z,5.28
2023-03-18T02:02:58.277Z,5.65
2023-03-18T02:05:28.444Z,5.53
2023-03-18T02:07:56.623Z,5.22
2023-03-18T02:10:29.923Z,5.30
2023-03-18T02:13:06.773Z,5.75
2023-03-18T02:15:55.260Z,5.75
2023-03-18T02:18:48.742Z,5.97
2023-03-18T02:21:46.705Z,5.55
2023-03-18T02:25:00.823Z,4.07
2023-03-18T02:27:35.964Z,6.72
2023-03-18T02:30:13.037Z,5.35
2023-03-18T02:32:42.693Z,5.22
2023-03-18T02:35:12.399Z,5.70
2023-03-18T02:37:41.415Z,5.35
2023-03-18T02:40:26.867Z,4.57
2023-03-18T02:42:55.214Z,6.47
2023-03-18T02:45:48.455Z,4.45
2023-03-18T02:48:20.868Z,3.72
2023-03-18T02:50:50.154Z,3.92
2023-03-18T02:53:18.083Z,5.25
2023-03-18T02:55:46.561Z,4.35
2023-03-18T02:58:14.301Z,6.72
2023-03-18T03:00:42.994Z,4.18
2023-03-18T03:03:11.055Z,5.45
2023-03-18T03:05:39.141Z,5.60
2023-03-18T03:08:07.319Z,5.05
2023-03-18T03:10:39.579Z,3.95
2023-03-18T03:13:09.840Z,4.28
2023-03-18T03:15:42.827Z,6.18
2023-03-18T03:18:11.565Z,6.53
2023-03-18T03:20:39.818Z,5.10
2023-03-18T03:23:12.503Z,3.60
2023-03-18T03:25:43.799Z,5.47
2023-03-18T03:28:13.927Z,4.80
2023-03-18T03:30:42.246Z,5.47
2023-03-18T03:33:10.200Z,5.63
2023-03-18T03:35:39.143Z,5.05
2023-03-18T03:38:07.979Z,4.38
2023-03-18T03:40:36.462Z,6.38
2023-03-18T03:43:05.684Z,5.00
2023-03-18T03:45:34.615Z,6.35
2023-03-18T03:48:02.589Z,6.15
2023-03-18T03:50:31.093Z,5.18
2023-03-18T03:53:00.920Z,4.88
2023-03-18T03:55:30.725Z,4.22
2023-03-18T03:57:58.678Z,3.80
2023-03-18T04:00:48.269Z,5.15
2023-03-18T04:03:19.131Z,4.50
2023-03-18T04:05:47.839Z,4.50
2023-03-18T04:08:16.924Z,7.70
2023-03-18T04:10:46.124Z,5.40
2023-03-18T04:13:14.644Z,3.65
2023-03-18T04:15:43.824Z,3.78
2023-03-18T04:18:17.355Z,5.13
2023-03-18T04:20:47.431Z,5.18
2023-03-18T04:23:27.913Z,5.22
2023-03-18T04:25:56.100Z,4.03
2023-03-18T04:28:28.142Z,5.30
2023-03-18T04:30:56.400Z,4.20
2023-03-18T04:33:26.636Z,4.38
2023-03-18T04:35:54.923Z,2.92
2023-03-18T04:38:24.419Z,5.93
2023-03-18T04:40:56.610Z,4.05
2023-03-18T04:43:25.838Z,3.85
2023-03-18T04:45:55.822Z,4.63
2023-03-18T04:48:25.678Z,2.97
2023-03-18T04:50:56.515Z,6.55
2023-03-18T04:53:29.550Z,6.05
2023-03-18T04:55:58.870Z,5.78
2023-03-18T04:58:35.308Z,5.18
2023-03-18T05:01:19.010Z,6.40
2023-03-18T05:03:48.427Z,7.90
2023-03-18T05:06:30.465Z,3.85
2023-03-18T05:09:06.594Z,4.72
2023-03-18T05:11:37.032Z,3.67
2023-03-18T05:14:24.959Z,6.35
2023-03-18T05:16:54.066Z,4.18
2023-03-18T05:19:25.601Z,4.47
2023-03-18T05:22:08.465Z,5.60
2023-03-18T05:24:37.110Z,3.80
2023-03-18T05:27:07.357Z,3.22
2023-03-18T05:29:43.956Z,4.05
2023-03-18T05:32:23.340Z,6.15
2023-03-18T05:34:57.855Z,4.80
2023-03-18T05:37:26.545Z,7.05
2023-03-18T05:40:10.020Z,10.90
2023-03-18T05:42:55.371Z,8.35
2023-03-18T05:45:33.103Z,8.23
2023-03-18T05:48:02.111Z,5.30
2023-03-18T05:50:38.050Z,6.80
2023-03-18T05:53:17.019Z,6.18
2023-03-18T05:55:48.838Z,4.50
2023-03-18T05:58:19.153Z,6.05
2023-03-18T06:00:50.701Z,5.38
2023-03-18T06:03:18.654Z,8.90
2023-03-18T06:05:47.850Z,9.30
2023-03-18T06:08:16.158Z,8.32
2023-03-18T06:10:43.953Z,8.70
2023-03-18T06:13:12.907Z,9.85
2023-03-18T06:15:41.117Z,7.10
2023-03-18T06:18:11.106Z,5.13
2023-03-18T06:20:43.280Z,4.32
2023-03-18T06:23:12.482Z,4.85
2023-03-18T06:25:41.421Z,4.75
2023-03-18T06:28:09.697Z,6.50
2023-03-18T06:30:38.994Z,5.55
2023-03-18T06:33:10.201Z,6.15
2023-03-18T06:35:38.988Z,8.45
2023-03-18T06:38:11.184Z,5.70
2023-03-18T06:40:41.199Z,5.32
2023-03-18T06:43:10.990Z,4.35
2023-03-18T06:45:42.330Z,5.38
2023-03-18T06:48:10.725Z,5.03
2023-03-18T06:50:43.103Z,4.03
2023-03-18T06:53:25.549Z,3.67
2023-03-18T06:55:54.065Z,4.10
2023-03-18T07:01:19.916Z,7.75
2023-03-18T07:03:49.926Z,8.32
2023-03-18T07:06:20.621Z,8.65
2023-03-18T07:08:49.758Z,9.93
2023-03-18T07:11:17.876Z,9.30
2023-03-18T07:13:49.155Z,8.13
2023-03-18T07:16:25.846Z,6.43
2023-03-18T07:18:54.777Z,5.38
2023-03-18T07:21:22.915Z,5.90
2023-03-18T07:23:52.295Z,6.55
2023-03-18T07:26:20.728Z,4.30
2023-03-18T07:28:48.897Z,6.65
2023-03-18T07:31:18.592Z,4.95
2023-03-18T07:33:49.150Z,6.63
2023-03-18T07:36:17.762Z,7.32
2023-03-18T07:38:45.451Z,9.93
2023-03-18T07:41:14.294Z,15.38
2023-03-18T07:43:44.586Z,13.40
2023-03-18T07:46:12.837Z,8.25
2023-03-18T07:48:41.068Z,9.38
2023-03-18T07:51:12.715Z,6.45
2023-03-18T07:53:41.666Z,6.80
2023-03-18T07:56:12.453Z,7.85
2023-03-18T07:58:41.350Z,3.20
2023-03-18T08:01:10.078Z,3.05
2023-03-18T08:03:38.728Z,2.92
2023-03-18T08:06:08.949Z,3.78
2023-03-18T08:08:38.188Z,2.63
2023-03-18T08:11:09.582Z,3.80
2023-03-18T08:16:09.141Z,5.88
2023-03-18T08:18:37.305Z,2.40
2023-03-18T08:21:08.505Z,2.42
2023-03-18T08:23:39.025Z,5.07
2023-03-18T08:26:08.344Z,2.25
2023-03-18T08:28:37.146Z,5.40
2023-03-18T08:31:05.881Z,3.85
2023-03-18T08:33:34.630Z,3.45
2023-03-18T08:36:03.094Z,3.92
2023-03-18T08:38:31.776Z,2.60
2023-03-18T08:40:59.720Z,2.38
2023-03-18T08:43:27.626Z,2.35
2023-03-18T08:45:56.663Z,1.95
2023-03-18T08:48:26.533Z,3.03
2023-03-18T08:50:55.817Z,3.47
2023-03-18T08:53:24.498Z,3.10
2023-03-18T08:55:57.554Z,2.17
2023-03-18T08:58:27.653Z,5.13
2023-03-18T09:00:57.104Z,2.33
2023-03-18T09:03:27.750Z,1.63
2023-03-18T09:05:57.855Z,4.22
2023-03-18T09:08:26.857Z,3.30
2023-03-18T09:10:55.572Z,3.05
2023-03-18T09:13:24.896Z,2.53
2023-03-18T09:15:53.364Z,2.70
2023-03-18T09:18:23.200Z,2.20
2023-03-18T09:20:52.672Z,2.88
2023-03-18T09:23:26.380Z,4.18
2023-03-18T09:25:57.442Z,2.13
2023-03-18T09:28:25.650Z,2.58
2023-03-18T09:30:56.283Z,1.00
2023-03-18T09:33:26.448Z,2.13
2023-03-18T09:35:56.111Z,2.75
2023-03-18T09:38:24.535Z,2.67
2023-03-18T09:41:30.133Z,2.35
2023-03-18T09:44:21.859Z,2.08
2023-03-18T09:47:24.787Z,1.38
2023-03-18T09:50:29.400Z,3.28
2023-03-18T09:53:23.087Z,2.05
2023-03-18T09:56:01.089Z,5.25
2023-03-18T09:58:55.361Z,2.35
2023-03-18T10:01:28.488Z,1.63
2023-03-18T10:04:32.416Z,2.10
2023-03-18T10:07:13.200Z,1.35
2023-03-18T10:09:51.874Z,1.20
2023-03-18T10:12:36.163Z,0.68
2023-03-18T10:15:26.486Z,2.42
2023-03-18T10:18:10.910Z,4.32
2023-03-18T10:21:17.764Z,1.80
2023-03-18T10:24:06.492Z,1.98
2023-03-18T10:26:47.318Z,1.73
2023-03-18T10:30:04.260Z,2.25
2023-03-18T10:33:04.730Z,0.80
2023-03-18T10:35:59.274Z,1.13
2023-03-18T10:38:39.312Z,3.80
2023-03-18T10:41:38.023Z,1.95
2023-03-18T10:44:25.496Z,1.95
2023-03-18T10:47:15.763Z,3.72
2023-03-18T10:50:13.580Z,1.63
2023-03-18T10:52:59.141Z,2.53
2023-03-18T10:55:36.585Z,1.48
2023-03-18T10:58:23.101Z,1.65
2023-03-18T11:00:51.598Z,1.55
2023-03-18T11:03:29.402Z,1.05
2023-03-18T11:06:04.337Z,1.00
2023-03-18T11:08:34.880Z,1.67
2023-03-18T11:11:34.912Z,1.48
2023-03-18T11:14:07.670Z,2.00
2023-03-18T11:16:46.932Z,2.25
2023-03-18T11:19:41.637Z,1.83
2023-03-18T11:22:25.234Z,1.40
2023-03-18T11:25:13.620Z,2.65
2023-03-18T11:27:53.061Z,1.50
2023-03-18T11:30:35.460Z,1.08
2023-03-18T11:33:16.116Z,1.98
2023-03-18T11:36:05.673Z,1.75
2023-03-18T11:38:37.031Z,0.80
2023-03-18T11:41:09.061Z,1.50
2023-03-18T11:43:39.066Z,2.45
2023-03-18T11:46:13.065Z,1.67
2023-03-18T11:48:45.283Z,0.88
2023-03-18T11:51:54.161Z,2.30
2023-03-18T11:55:01.516Z,0.95
2023-03-18T11:58:10.589Z,0.75
2023-03-18T12:01:07.409Z,0.73
2023-03-18T12:03:53.945Z,1.00
2023-03-18T12:06:28.932Z,1.23
2023-03-18T12:09:51.036Z,1.75
2023-03-18T12:12:40.181Z,1.52
2023-03-18T12:15:23.310Z,2.45
2023-03-18T12:18:49.379Z,1.95
2023-03-18T12:21:46.559Z,0.85
2023-03-18T12:24:45.611Z,1.27
2023-03-18T12:27:37.351Z,1.50
2023-03-18T12:30:25.166Z,3.78
2023-03-18T12:33:20.964Z,6.47
2023-03-18T12:36:31.305Z,1.33
2023-03-18T12:39:44.479Z,1.95
2023-03-18T12:43:17.856Z,0.77
2023-03-18T12:45:51.039Z,3.17
2023-03-18T12:48:43.667Z,2.28
2023-03-18T12:51:25.252Z,1.13
2023-03-18T12:54:10.611Z,1.13
2023-03-18T12:56:46.250Z,1.35
2023-03-18T12:59:40.609Z,1.52
2023-03-18T13:02:40.744Z,1.08
2023-03-18T13:05:42.942Z,1.05
2023-03-18T13:08:54.698Z,1.75
2023-03-18T13:11:45.389Z,2.58
2023-03-18T13:14:46.690Z,1.60
2023-03-18T13:17:29.859Z,2.15
2023-03-18T13:20:09.969Z,0.93
2023-03-18T13:22:48.463Z,1.55
2023-03-18T13:25:42.862Z,1.02
2023-03-18T13:28:33.862Z,1.75
2023-03-18T13:31:15.808Z,1.83
2023-03-18T13:34:37.266Z,1.50
2023-03-18T13:38:05.768Z,1.38
2023-03-18T13:41:01.735Z,2.25
2023-03-18T13:43:32.920Z,1.65
2023-03-18T13:46:04.416Z,1.40
2023-03-18T13:48:35.908Z,0.93
2023-03-18T13:51:25.430Z,2.77
2023-03-18T13:54:00.273Z,1.67
2023-03-18T13:56:40.734Z,1.05
2023-03-18T13:59:36.188Z,1.65
2023-03-18T14:02:29.852Z,1.50
2023-03-18T14:04:59.994Z,1.10
2023-03-18T14:07:30.385Z,3.90
2023-03-18T14:10:17.876Z,1.43
2023-03-18T14:12:50.827Z,1.58
2023-03-18T14:15:42.744Z,1.45
2023-03-18T14:18:27.301Z,1.00
2023-03-18T14:21:03.011Z,1.40
2023-03-18T14:23:45.131Z,2.25
2023-03-18T14:26:30.145Z,1.70
2023-03-18T14:29:37.836Z,3.83
2023-03-18T14:32:32.895Z,2.28
2023-03-18T14:35:05.059Z,1.13
2023-03-18T14:37:34.355Z,1.67
2023-03-18T14:40:35.842Z,2.00
2023-03-18T14:43:17.656Z,1.98
2023-03-18T14:45:49.967Z,2.22
2023-03-18T14:48:29.756Z,2.15
2023-03-18T14:51:17.975Z,2.45
2023-03-18T14:53:59.807Z,1.70
2023-03-18T14:56:36.931Z,2.03
2023-03-18T14:59:05.329Z,1.02
2023-03-18T15:01:40.510Z,1.67
2023-03-18T15:04:20.214Z,1.23
2023-03-18T15:06:49.356Z,3.30
2023-03-18T15:09:25.671Z,1.27
2023-03-18T15:11:55.328Z,2.55
2023-03-18T15:14:32.647Z,1.20
2023-03-18T15:17:04.850Z,3.28
2023-03-18T15:19:34.259Z,1.15
2023-03-18T15:22:06.124Z,2.88
2023-03-18T15:24:38.372Z,1.05
2023-03-18T15:27:20.843Z,2.10
2023-03-18T15:29:57.313Z,2.25
2023-03-18T15:32:31.895Z,1.08
2023-03-18T15:35:27.233Z,0.95
2023-03-18T15:38:19.704Z,0.80
2023-03-18T15:41:00.151Z,1.60
2023-03-18T15:43:35.553Z,1.27
2023-03-18T15:46:25.996Z,1.13
2023-03-18T15:48:59.272Z,1.38
2023-03-18T15:51:44.865Z,4.45
2023-03-18T15:54:30.365Z,14.10
2023-03-18T15:57:00.788Z,15.23
2023-03-18T15:59:50.485Z,7.43
2023-03-18T16:02:19.637Z,3.65
2023-03-18T16:04:48.603Z,3.30
2023-03-18T16:07:22.630Z,2.72
2023-03-18T16:09:52.082Z,4.10
2023-03-18T16:12:25.081Z,2.08
2023-03-18T16:14:55.250Z,2.40
2023-03-18T16:17:23.680Z,3.45
2023-03-18T16:19:55.729Z,2.58
2023-03-18T16:22:26.810Z,2.00
2023-03-18T16:24:55.094Z,1.20
2023-03-18T16:27:36.871Z,1.65
2023-03-18T16:30:08.480Z,6.32
2023-03-18T16:32:37.696Z,3.20
2023-03-18T16:35:07.140Z,3.05
2023-03-18T16:37:35.291Z,4.20
2023-03-18T16:40:29.506Z,3.22
2023-03-18T16:42:57.953Z,2.80
2023-03-18T16:45:33.444Z,3.00
2023-03-18T16:48:06.824Z,2.25
2023-03-18T16:50:38.979Z,2.53
2023-03-18T16:53:29.950Z,5.38
2023-03-18T16:56:03.743Z,2.05
2023-03-18T16:58:37.900Z,1.95
2023-03-18T17:01:07.819Z,3.00
2023-03-18T17:03:36.650Z,3.15
2023-03-18T17:06:09.234Z,5.10
2023-03-18T17:08:38.239Z,4.18
2023-03-18T17:11:08.044Z,3.22
2023-03-18T17:13:38.955Z,6.40
2023-03-18T17:16:19.748Z,6.57
2023-03-18T17:18:48.645Z,10.73
2023-03-18T17:21:17.160Z,11.32
2023-03-18T17:23:46.607Z,6.78
2023-03-18T17:26:16.628Z,6.97
2023-03-18T17:28:49.579Z,6.60
2023-03-18T17:31:17.742Z,6.05
2023-03-18T17:33:46.850Z,3.00
2023-03-18T17:36:16.231Z,3.03
2023-03-18T17:38:44.919Z,3.72
2023-03-18T17:41:24.363Z,2.25
2023-03-18T17:43:53.854Z,2.45
2023-03-18T17:46:22.286Z,2.40
2023-03-18T17:48:51.176Z,1.90
2023-03-18T17:51:24.119Z,2.78
2023-03-18T17:53:59.867Z,2.03
2023-03-18T17:56:30.231Z,2.00
2023-03-18T17:58:59.712Z,3.63
2023-03-18T18:01:29.513Z,6.13
2023-03-18T18:04:00.699Z,3.65
2023-03-18T18:06:33.927Z,1.83
2023-03-18T18:09:02.782Z,2.25
2023-03-18T18:11:37.393Z,4.40
2023-03-18T18:14:24.742Z,3.65
2023-03-18T18:16:56.291Z,6.20
2023-03-18T18:19:24.448Z,4.32
2023-03-18T18:21:53.178Z,6.60
2023-03-18T18:24:26.441Z,6.25
2023-03-18T18:26:54.992Z,4.28
2023-03-18T18:29:28.518Z,5.28
2023-03-18T18:31:57.695Z,3.40
2023-03-18T18:34:25.720Z,4.05
2023-03-18T18:36:54.598Z,5.47
2023-03-18T18:39:22.923Z,5.88
2023-03-18T18:41:51.292Z,7.05
2023-03-18T18:44:22.680Z,8.80
2023-03-18T18:46:51.787Z,8.43
2023-03-18T18:49:24.702Z,5.57
2023-03-18T18:51:55.591Z,6.63
2023-03-18T18:54:25.885Z,7.35
2023-03-18T18:56:54.107Z,8.98
2023-03-18T18:59:32.521Z,9.35
2023-03-18T19:02:01.069Z,5.70
2023-03-18T19:04:29.946Z,5.18
2023-03-18T19:07:06.897Z,4.65
2023-03-18T19:09:35.901Z,6.25
2023-03-18T19:12:05.124Z,5.75
2023-03-18T19:14:35.363Z,8.23
2023-03-18T19:17:05.463Z,6.13
2023-03-18T19:19:35.848Z,5.28
2023-03-18T19:22:04.616Z,6.75
2023-03-18T19:24:38.564Z,6.00
2023-03-18T19:27:31.741Z,6.03
2023-03-18T19:30:05.678Z,5.00
2023-03-18T19:32:34.173Z,4.95
2023-03-18T19:35:02.493Z,3.17
2023-03-18T19:37:32.908Z,4.22
2023-03-18T19:40:14.095Z,5.57
2023-03-18T19:42:42.690Z,3.07
2023-03-18T19:45:13.704Z,4.07
2023-03-18T19:47:42.892Z,6.72
2023-03-18T19:50:19.580Z,7.45
2023-03-18T19:52:48.337Z,5.60
2023-03-18T19:55:17.726Z,5.55
2023-03-18T19:57:48.776Z,6.18
2023-03-18T20:00:25.943Z,6.35
2023-03-18T20:02:54.408Z,6.05
2023-03-18T20:05:26.150Z,28.83
2023-03-18T20:07:54.920Z,43.25
2023-03-18T20:10:25.163Z,17.05
2023-03-18T20:12:53.383Z,7.50
2023-03-18T20:15:27.110Z,7.85
2023-03-18T20:17:56.745Z,8.90
2023-03-18T20:20:29.395Z,7.05
2023-03-18T20:23:02.186Z,6.38
2023-03-18T20:25:42.043Z,9.75
2023-03-18T20:28:30.254Z,8.60
2023-03-18T20:30:59.307Z,8.20
2023-03-18T20:33:27.468Z,7.75
2023-03-18T20:35:57.302Z,6.78
2023-03-18T20:38:30.922Z,6.07
2023-03-18T20:41:01.926Z,5.45
2023-03-18T20:43:30.947Z,7.18
2023-03-18T20:46:01.547Z,4.55
2023-03-18T20:48:32.328Z,4.70
2023-03-18T20:51:00.368Z,4.67
2023-03-18T20:53:29.326Z,3.25
2023-03-18T20:55:58.573Z,4.80
2023-03-18T20:58:28.405Z,3.92
2023-03-18T21:00:57.148Z,4.68
2023-03-18T21:03:32.374Z,5.40
2023-03-18T21:06:05.172Z,5.13
2023-03-18T21:08:33.895Z,6.25
2023-03-18T21:11:03.423Z,5.15
2023-03-18T21:13:39.449Z,4.78
2023-03-18T21:16:15.418Z,5.15
2023-03-18T21:18:47.701Z,6.22
2023-03-18T21:21:41.410Z,5.80
2023-03-18T21:24:28.029Z,3.83
2023-03-18T21:27:04.571Z,5.28
2023-03-18T21:29:36.649Z,4.15
2023-03-18T21:32:05.270Z,5.35
2023-03-18T21:34:33.477Z,4.63
2023-03-18T21:37:02.232Z,6.45
2023-03-18T21:39:31.112Z,9.45
2023-03-18T21:41:59.489Z,5.93
2023-03-18T21:44:29.222Z,7.82
2023-03-18T21:47:00.747Z,7.95
2023-03-18T21:49:29.380Z,7.10
2023-03-18T21:51:57.900Z,7.95
2023-03-18T21:54:26.301Z,8.35
2023-03-18T21:56:57.034Z,8.30
2023-03-18T21:59:28.485Z,10.73
2023-03-18T22:01:56.433Z,7.25
2023-03-18T22:04:25.126Z,12.20
2023-03-18T22:06:53.561Z,9.38
2023-03-18T22:09:21.843Z,11.07
2023-03-18T22:11:49.902Z,13.30
2023-03-18T22:14:18.192Z,15.43
2023-03-18T22:16:46.816Z,16.25
2023-03-18T22:19:15.508Z,14.68
2023-03-18T22:21:43.644Z,15.57
2023-03-18T22:24:14.508Z,13.55
2023-03-18T22:26:43.813Z,11.23
2023-03-18T22:29:11.821Z,11.73
2023-03-18T22:31:42.173Z,11.32
2023-03-18T22:34:25.446Z,10.63
2023-03-18T22:36:53.809Z,8.45
2023-03-18T22:39:23.332Z,6.57
2023-03-18T22:41:51.542Z,8.27
2023-03-18T22:44:24.439Z,6.40
2023-03-18T22:46:52.686Z,5.18
2023-03-18T22:49:20.777Z,9.30
2023-03-18T22:51:49.018Z,5.43
2023-03-18T22:54:19.221Z,7.05
2023-03-18T22:56:47.344Z,5.45
2023-03-18T22:59:15.756Z,7.30
2023-03-18T23:01:45.351Z,6.32
2023-03-18T23:04:14.396Z,6.65
2023-03-18T23:06:43.217Z,7.63
2023-03-18T23:09:14.074Z,7.18
2023-03-18T23:11:42.567Z,8.70
2023-03-18T23:14:12.628Z,7.82
2023-03-18T23:16:41.088Z,7.95
2023-03-18T23:19:08.960Z,7.68
2023-03-18T23:21:38.690Z,8.35
2023-03-18T23:24:09.724Z,10.85
2023-03-18T23:26:39.487Z,7.40
2023-03-18T23:29:09.134Z,6.75
2023-03-18T23:31:37.011Z,9.05
2023-03-18T23:34:05.274Z,11.13
2023-03-18T23:36:34.407Z,6.88
2023-03-18T23:39:03.285Z,7.75
2023-03-18T23:41:32.935Z,9.23
2023-03-18T23:44:02.484Z,7.03
2023-03-18T23:46:31.352Z,6.25
2023-03-18T23:49:00.448Z,10.35
2023-03-18T23:51:30.182Z,8.50
2023-03-18T23:53:58.555Z,6.85
2023-03-18T23:56:29.313Z,6.30
2023-03-18T23:58:57.905Z,9.43
